createdAt,value
2017-03-01T00:00:46.776Z,0
2017-03-01T00:01:46.744Z,0
2017-03-01T00:02:47.144Z,0
2017-03-01T00:03:47.511Z,0
2017-03-01T00:04:46.704Z,0
2017-03-01T00:05:46.661Z,0
2017-03-01T00:06:47.533Z,0
2017-03-01T00:07:46.666Z,0
2017-03-01T00:08:47.033Z,0
2017-03-01T00:09:46.925Z,0
2017-03-01T00:10:46.950Z,0
2017-03-01T00:11:46.499Z,0
2017-03-01T00:12:47.269Z,0
2017-03-01T00:13:47.259Z,0
2017-03-01T00:14:46.429Z,0
2017-03-01T00:15:47.259Z,0
2017-03-01T00:16:46.784Z,0
2017-03-01T00:17:47.213Z,0
2017-03-01T00:18:47.126Z,0
2017-03-01T00:19:47.103Z,0
2017-03-01T00:20:46.730Z,0
2017-03-01T00:21:47.140Z,0
2017-03-01T00:22:46.671Z,0
2017-03-01T00:23:46.203Z,0
2017-03-01T00:24:46.957Z,0
2017-03-01T00:25:46.927Z,0
2017-03-01T00:26:45.751Z,0
2017-03-01T00:27:46.891Z,0
2017-03-01T00:28:46.871Z,0
2017-03-01T00:29:46.077Z,0
2017-03-01T00:30:46.090Z,0
2017-03-01T00:31:46.021Z,0
2017-03-01T00:32:46.455Z,0
2017-03-01T00:33:46.742Z,0
2017-03-01T00:34:45.921Z,0
2017-03-01T00:35:46.358Z,0
2017-03-01T00:36:46.369Z,0
2017-03-01T00:37:46.336Z,0
2017-03-01T00:38:46.618Z,0
2017-03-01T00:39:46.646Z,0
2017-03-01T00:40:45.797Z,0
2017-03-01T00:41:46.175Z,0
2017-03-01T00:42:46.139Z,0
2017-03-01T00:43:45.743Z,0
2017-03-01T00:44:45.307Z,0
2017-03-01T00:45:46.561Z,0
2017-03-01T00:46:46.439Z,0
2017-03-01T00:47:45.285Z,0
2017-03-01T00:48:45.992Z,0
2017-03-01T00:49:46.028Z,0
2017-03-01T00:50:45.981Z,0
2017-03-01T00:51:45.208Z,0
2017-03-01T00:52:45.865Z,0
2017-03-01T00:53:45.888Z,0
2017-03-01T00:54:45.037Z,0
2017-03-01T00:55:45.817Z,0
2017-03-01T00:56:46.233Z,0
2017-03-01T00:57:45.925Z,0
2017-03-01T00:58:45.826Z,0
2017-03-01T00:59:45.816Z,0
2017-03-01T01:00:44.924Z,0
2017-03-01T01:01:45.684Z,0
2017-03-01T01:02:44.905Z,0
2017-03-01T01:03:45.614Z,0
2017-03-01T01:04:46.053Z,0
2017-03-01T01:05:45.692Z,0
2017-03-01T01:06:45.541Z,0
2017-03-01T01:07:45.612Z,0
2017-03-01T01:08:45.922Z,0
2017-03-01T01:09:45.863Z,0
2017-03-01T01:10:45.040Z,0
2017-03-01T01:11:45.016Z,0
2017-03-01T01:12:45.447Z,0
2017-03-01T01:13:44.977Z,0
2017-03-01T01:14:45.328Z,0
2017-03-01T01:15:45.351Z,0
2017-03-01T01:16:45.786Z,0
2017-03-01T01:17:45.265Z,0
2017-03-01T01:18:45.621Z,0
2017-03-01T01:19:45.230Z,0
2017-03-01T01:20:45.246Z,0
2017-03-01T01:21:45.161Z,0
2017-03-01T01:22:45.550Z,0
2017-03-01T01:23:44.712Z,0
2017-03-01T01:24:45.104Z,0
2017-03-01T01:25:45.060Z,0
2017-03-01T01:26:44.270Z,0
2017-03-01T01:27:44.231Z,0
2017-03-01T01:28:45.010Z,0
2017-03-01T01:29:44.570Z,0
2017-03-01T01:30:44.560Z,0
2017-03-01T01:31:45.387Z,0
2017-03-01T01:32:45.379Z,0
2017-03-01T01:33:45.260Z,0
2017-03-01T01:34:44.844Z,0
2017-03-01T01:35:44.835Z,0
2017-03-01T01:36:44.794Z,0
2017-03-01T01:37:44.422Z,0
2017-03-01T01:38:44.351Z,0
2017-03-01T01:39:44.385Z,0
2017-03-01T01:40:44.306Z,0
2017-03-01T01:41:45.044Z,0
2017-03-01T01:42:44.645Z,0
2017-03-01T01:43:44.610Z,0
2017-03-01T01:44:44.595Z,0
2017-03-01T01:45:44.615Z,0
2017-03-01T01:46:44.555Z,0
2017-03-01T01:47:44.904Z,0
2017-03-01T01:48:43.739Z,0
2017-03-01T01:49:43.695Z,0
2017-03-01T01:50:44.087Z,0
2017-03-01T01:51:44.783Z,0
2017-03-01T01:52:44.406Z,0
2017-03-01T01:53:44.344Z,0
2017-03-01T01:54:44.837Z,0
2017-03-01T01:55:44.725Z,0
2017-03-01T01:56:44.296Z,0
2017-03-01T01:57:44.684Z,0
2017-03-01T01:58:44.635Z,0
2017-03-01T01:59:44.212Z,0
2017-03-01T02:00:43.894Z,0
2017-03-01T02:01:44.196Z,0
2017-03-01T02:02:44.211Z,0
2017-03-01T02:03:44.121Z,0
2017-03-01T02:04:44.145Z,0
2017-03-01T02:05:44.073Z,0
2017-03-01T02:06:44.531Z,0
2017-03-01T02:07:44.445Z,0
2017-03-01T02:08:44.541Z,0
2017-03-01T02:09:43.595Z,0
2017-03-01T02:10:44.382Z,0
2017-03-01T02:11:43.910Z,0
2017-03-01T02:12:44.100Z,0
2017-03-01T02:13:43.077Z,0
2017-03-01T02:14:43.503Z,0
2017-03-01T02:15:44.239Z,0
2017-03-01T02:16:43.804Z,0
2017-03-01T02:17:43.452Z,0
2017-03-01T02:18:43.746Z,0
2017-03-01T02:19:43.745Z,0
2017-03-01T02:20:44.082Z,0
2017-03-01T02:21:43.267Z,0
2017-03-01T02:22:43.239Z,0
2017-03-01T02:23:43.631Z,0
2017-03-01T02:24:42.815Z,0
2017-03-01T02:25:43.561Z,0
2017-03-01T02:26:43.553Z,0
2017-03-01T02:27:43.152Z,0
2017-03-01T02:28:43.097Z,0
2017-03-01T02:29:43.129Z,0
2017-03-01T02:30:43.063Z,0
2017-03-01T02:31:43.417Z,0
2017-03-01T02:32:43.451Z,0
2017-03-01T02:33:43.856Z,0
2017-03-01T02:34:42.154Z,0
2017-03-01T02:35:43.412Z,0
2017-03-01T02:36:43.745Z,0
2017-03-01T02:37:43.330Z,0
2017-03-01T02:38:43.681Z,0
2017-03-01T02:39:43.220Z,0
2017-03-01T02:40:42.788Z,0
2017-03-01T02:41:43.524Z,0
2017-03-01T02:42:43.521Z,0
2017-03-01T02:43:43.115Z,0
2017-03-01T02:44:42.397Z,0
2017-03-01T02:45:42.308Z,0
2017-03-01T02:46:43.029Z,0
2017-03-01T02:47:43.447Z,0
2017-03-01T02:48:43.007Z,0
2017-03-01T02:49:43.391Z,0
2017-03-01T02:50:42.167Z,0
2017-03-01T02:51:42.125Z,0
2017-03-01T02:52:42.898Z,0
2017-03-01T02:53:42.466Z,0
2017-03-01T02:54:42.962Z,0
2017-03-01T02:55:42.023Z,0
2017-03-01T02:56:42.046Z,0
2017-03-01T02:57:42.409Z,0
2017-03-01T02:58:41.980Z,0
2017-03-01T02:59:43.107Z,0
2017-03-01T03:00:42.313Z,0
2017-03-01T03:01:42.730Z,0
2017-03-01T03:02:42.256Z,0
2017-03-01T03:03:42.222Z,0
2017-03-01T03:04:42.595Z,0
2017-03-01T03:05:42.948Z,0
2017-03-01T03:06:42.965Z,0
2017-03-01T03:07:42.555Z,0
2017-03-01T03:08:42.517Z,0
2017-03-01T03:09:42.887Z,0
2017-03-01T03:10:42.436Z,0
2017-03-01T03:11:42.034Z,0
2017-03-01T03:12:42.386Z,0
2017-03-01T03:13:42.364Z,0
2017-03-01T03:14:41.934Z,0
2017-03-01T03:15:41.533Z,0
2017-03-01T03:16:42.285Z,0
2017-03-01T03:17:42.261Z,0
2017-03-01T03:18:41.849Z,0
2017-03-01T03:19:42.281Z,0
2017-03-01T03:20:41.447Z,0
2017-03-01T03:21:42.189Z,0
2017-03-01T03:22:40.969Z,0
2017-03-01T03:23:41.745Z,0
2017-03-01T03:24:42.083Z,0
2017-03-01T03:25:42.455Z,0
2017-03-01T03:26:42.038Z,0
2017-03-01T03:27:40.875Z,0
2017-03-01T03:28:41.692Z,0
2017-03-01T03:29:41.288Z,0
2017-03-01T03:30:41.936Z,0
2017-03-01T03:31:42.442Z,0
2017-03-01T03:32:41.594Z,0
2017-03-01T03:33:41.914Z,0
2017-03-01T03:34:40.710Z,0
2017-03-01T03:35:42.215Z,0
2017-03-01T03:36:42.260Z,0
2017-03-01T03:37:41.051Z,0
2017-03-01T03:38:41.743Z,0
2017-03-01T03:39:41.351Z,0
2017-03-01T03:40:41.708Z,0
2017-03-01T03:41:42.062Z,0
2017-03-01T03:42:42.029Z,0
2017-03-01T03:43:42.013Z,0
2017-03-01T03:44:41.587Z,0
2017-03-01T03:45:40.393Z,0
2017-03-01T03:46:41.986Z,0
2017-03-01T03:47:40.783Z,0
2017-03-01T03:48:40.698Z,0
2017-03-01T03:49:40.713Z,0
2017-03-01T03:50:41.824Z,0
2017-03-01T03:51:41.002Z,0
2017-03-01T03:52:41.475Z,0
2017-03-01T03:53:41.358Z,0
2017-03-01T03:54:41.361Z,0
2017-03-01T03:55:40.932Z,0
2017-03-01T03:56:40.179Z,0
2017-03-01T03:57:40.901Z,0
2017-03-01T03:58:41.250Z,0
2017-03-01T03:59:41.645Z,0
2017-03-01T04:00:40.976Z,0
2017-03-01T04:01:41.159Z,0
2017-03-01T04:02:41.170Z,0
2017-03-01T04:03:41.514Z,0
2017-03-01T04:04:41.478Z,0
2017-03-01T04:05:41.118Z,0
2017-03-01T04:06:41.062Z,0
2017-03-01T04:07:41.018Z,0
2017-03-01T04:08:40.575Z,0
2017-03-01T04:09:40.575Z,0
2017-03-01T04:10:40.903Z,0
2017-03-01T04:11:41.376Z,0
2017-03-01T04:12:41.352Z,0
2017-03-01T04:13:40.055Z,0
2017-03-01T04:14:41.252Z,0
2017-03-01T04:15:40.402Z,0
2017-03-01T04:16:40.822Z,0
2017-03-01T04:17:40.360Z,0
2017-03-01T04:18:40.731Z,0
2017-03-01T04:19:40.291Z,0
2017-03-01T04:20:40.294Z,0
2017-03-01T04:21:39.879Z,0
2017-03-01T04:22:39.859Z,0
2017-03-01T04:23:40.581Z,0
2017-03-01T04:24:40.190Z,0
2017-03-01T04:25:40.147Z,0
2017-03-01T04:26:40.558Z,0
2017-03-01T04:27:40.921Z,0
2017-03-01T04:28:40.077Z,0
2017-03-01T04:29:40.044Z,0
2017-03-01T04:30:40.011Z,0
2017-03-01T04:31:40.834Z,0
2017-03-01T04:32:39.972Z,0
2017-03-01T04:33:40.731Z,0
2017-03-01T04:34:40.355Z,0
2017-03-01T04:35:40.292Z,0
2017-03-01T04:36:40.264Z,0
2017-03-01T04:37:40.251Z,0
2017-03-01T04:38:39.836Z,0
2017-03-01T04:39:40.208Z,0
2017-03-01T04:40:40.237Z,0
2017-03-01T04:41:39.784Z,0
2017-03-01T04:42:40.226Z,0
2017-03-01T04:43:40.508Z,0
2017-03-01T04:44:40.076Z,0
2017-03-01T04:45:39.271Z,0
2017-03-01T04:46:40.414Z,0
2017-03-01T04:47:40.033Z,0
2017-03-01T04:48:39.184Z,0
2017-03-01T04:49:40.336Z,0
2017-03-01T04:50:39.936Z,0
2017-03-01T04:51:39.552Z,0
2017-03-01T04:52:40.319Z,0
2017-03-01T04:53:39.673Z,0
2017-03-01T04:54:39.930Z,0
2017-03-01T04:55:39.794Z,0
2017-03-01T04:56:39.820Z,0
2017-03-01T04:57:39.362Z,0
2017-03-01T04:58:40.097Z,0
2017-03-01T04:59:39.359Z,0
2017-03-01T05:00:40.065Z,0
2017-03-01T05:01:40.030Z,0
2017-03-01T05:02:39.672Z,0
2017-03-01T05:03:39.235Z,0
2017-03-01T05:04:39.352Z,0
2017-03-01T05:05:39.573Z,0
2017-03-01T05:06:39.138Z,0
2017-03-01T05:07:39.566Z,0
2017-03-01T05:08:39.482Z,0
2017-03-01T05:09:39.843Z,0
2017-03-01T05:10:39.180Z,0
2017-03-01T05:11:39.473Z,0
2017-03-01T05:12:38.997Z,0
2017-03-01T05:13:39.382Z,0
2017-03-01T05:14:39.750Z,0
2017-03-01T05:15:39.367Z,0
2017-03-01T05:16:39.799Z,0
2017-03-01T05:17:38.930Z,0
2017-03-01T05:18:39.259Z,0
2017-03-01T05:19:39.215Z,0
2017-03-01T05:20:39.177Z,0
2017-03-01T05:21:39.546Z,0
2017-03-01T05:22:38.726Z,0
2017-03-01T05:23:39.113Z,0
2017-03-01T05:24:38.694Z,0
2017-03-01T05:25:39.062Z,0
2017-03-01T05:26:39.068Z,0
2017-03-01T05:27:39.026Z,0
2017-03-01T05:28:38.593Z,0
2017-03-01T05:29:38.592Z,0
2017-03-01T05:30:38.560Z,0
2017-03-01T05:31:39.307Z,0
2017-03-01T05:32:39.353Z,0
2017-03-01T05:33:38.472Z,0
2017-03-01T05:34:39.270Z,0
2017-03-01T05:35:38.776Z,0
2017-03-01T05:36:39.180Z,0
2017-03-01T05:37:39.205Z,0
2017-03-01T05:38:38.791Z,0
2017-03-01T05:39:38.697Z,0
2017-03-01T05:40:38.404Z,0
2017-03-01T05:41:38.656Z,0
2017-03-01T05:42:38.274Z,0
2017-03-01T05:43:38.618Z,0
2017-03-01T05:44:38.999Z,0
2017-03-01T05:45:38.167Z,0
2017-03-01T05:46:38.523Z,0
2017-03-01T05:47:38.525Z,0
2017-03-01T05:48:38.915Z,0
2017-03-01T05:49:38.056Z,0
2017-03-01T05:50:38.047Z,0
2017-03-01T05:51:38.461Z,0
2017-03-01T05:52:38.378Z,0
2017-03-01T05:53:38.383Z,0
2017-03-01T05:54:38.338Z,0
2017-03-01T05:55:37.932Z,0
2017-03-01T05:56:37.953Z,0
2017-03-01T05:57:38.649Z,0
2017-03-01T05:58:37.851Z,0
2017-03-01T05:59:38.346Z,0
2017-03-01T06:00:38.203Z,0
2017-03-01T06:01:38.162Z,0
2017-03-01T06:02:38.134Z,0
2017-03-01T06:03:38.095Z,0
2017-03-01T06:04:37.297Z,0
2017-03-01T06:05:38.098Z,0
2017-03-01T06:06:37.267Z,0
2017-03-01T06:07:38.003Z,0
2017-03-01T06:08:37.695Z,0
2017-03-01T06:09:38.401Z,0
2017-03-01T06:10:37.161Z,0
2017-03-01T06:11:37.590Z,0
2017-03-01T06:12:37.905Z,0
2017-03-01T06:13:37.862Z,0
2017-03-01T06:14:37.838Z,0
2017-03-01T06:15:37.808Z,0
2017-03-01T06:16:37.873Z,0
2017-03-01T06:17:37.499Z,0
2017-03-01T06:18:37.454Z,0
2017-03-01T06:19:37.335Z,0
2017-03-01T06:20:37.679Z,0
2017-03-01T06:21:38.115Z,0
2017-03-01T06:22:37.640Z,0
2017-03-01T06:23:37.335Z,0
2017-03-01T06:24:37.996Z,0
2017-03-01T06:25:37.256Z,0
2017-03-01T06:26:37.526Z,0
2017-03-01T06:27:37.192Z,0
2017-03-01T06:28:37.501Z,0
2017-03-01T06:29:37.869Z,0
2017-03-01T06:30:37.843Z,0
2017-03-01T06:31:36.650Z,0
2017-03-01T06:32:37.444Z,0
2017-03-01T06:33:37.780Z,0
2017-03-01T06:34:37.740Z,0
2017-03-01T06:35:37.767Z,0
2017-03-01T06:36:37.755Z,0
2017-03-01T06:37:37.276Z,0
2017-03-01T06:38:37.236Z,0
2017-03-01T06:39:37.232Z,0
2017-03-01T06:40:36.436Z,0
2017-03-01T06:41:37.186Z,0
2017-03-01T06:42:37.545Z,0
2017-03-01T06:43:37.132Z,0
2017-03-01T06:44:36.721Z,0
2017-03-01T06:45:36.703Z,0
2017-03-01T06:46:37.052Z,0
2017-03-01T06:47:37.436Z,0
2017-03-01T06:48:36.627Z,0
2017-03-01T06:49:37.420Z,0
2017-03-01T06:50:36.192Z,0
2017-03-01T06:51:36.942Z,0
2017-03-01T06:52:36.906Z,0
2017-03-01T06:53:36.497Z,0
2017-03-01T06:54:36.473Z,0
2017-03-01T06:55:37.269Z,0
2017-03-01T06:56:37.210Z,0
2017-03-01T06:57:37.166Z,0
2017-03-01T06:58:35.982Z,0
2017-03-01T06:59:37.176Z,0
2017-03-01T07:00:37.117Z,0
2017-03-01T07:01:37.065Z,5
2017-03-01T07:02:37.065Z,5
2017-03-01T07:03:36.630Z,5
2017-03-01T07:04:36.632Z,5
2017-03-01T07:05:36.597Z,10
2017-03-01T07:06:37.087Z,10
2017-03-01T07:07:36.573Z,10
2017-03-01T07:08:36.515Z,10
2017-03-01T07:09:36.191Z,10
2017-03-01T07:10:36.842Z,15
2017-03-01T07:11:36.828Z,10
2017-03-01T07:12:36.509Z,5
2017-03-01T07:13:36.090Z,5
2017-03-01T07:14:36.440Z,10
2017-03-01T07:15:35.214Z,10
2017-03-01T07:16:35.951Z,10
2017-03-01T07:17:36.328Z,10
2017-03-01T07:18:36.268Z,10
2017-03-01T07:19:35.514Z,5
2017-03-01T07:20:36.253Z,5
2017-03-01T07:21:36.582Z,5
2017-03-01T07:22:36.197Z,10
2017-03-01T07:23:35.774Z,10
2017-03-01T07:24:36.135Z,5
2017-03-01T07:25:35.725Z,5
2017-03-01T07:26:35.682Z,5
2017-03-01T07:27:35.691Z,5
2017-03-01T07:28:35.242Z,5
2017-03-01T07:29:36.023Z,5
2017-03-01T07:30:35.344Z,10
2017-03-01T07:31:35.560Z,10
2017-03-01T07:32:35.919Z,10
2017-03-01T07:33:36.428Z,10
2017-03-01T07:34:36.280Z,10
2017-03-01T07:35:35.848Z,10
2017-03-01T07:36:35.468Z,10
2017-03-01T07:37:36.194Z,10
2017-03-01T07:38:35.788Z,15
2017-03-01T07:39:35.768Z,20
2017-03-01T07:40:35.746Z,25
2017-03-01T07:41:35.713Z,25
2017-03-01T07:42:35.305Z,25
2017-03-01T07:43:36.049Z,25
2017-03-01T07:44:35.682Z,30
2017-03-01T07:45:36.010Z,40
2017-03-01T07:46:35.611Z,45
2017-03-01T07:47:34.837Z,45
2017-03-01T07:48:35.540Z,70
2017-03-01T07:49:35.541Z,65
2017-03-01T07:50:35.503Z,45
2017-03-01T07:51:35.529Z,40
2017-03-01T07:52:35.445Z,35
2017-03-01T07:53:34.639Z,35
2017-03-01T07:54:34.659Z,35
2017-03-01T07:55:35.050Z,30
2017-03-01T07:56:34.977Z,25
2017-03-01T07:57:34.567Z,20
2017-03-01T07:58:35.681Z,20
2017-03-01T07:59:35.675Z,20
2017-03-01T08:00:34.953Z,15
2017-03-01T08:01:35.243Z,15
2017-03-01T08:02:35.224Z,15
2017-03-01T08:03:34.412Z,20
2017-03-01T08:04:35.644Z,25
2017-03-01T08:05:35.133Z,25
2017-03-01T08:06:35.501Z,20
2017-03-01T08:07:35.090Z,20
2017-03-01T08:08:35.083Z,15
2017-03-01T08:09:35.048Z,15
2017-03-01T08:10:35.440Z,10
2017-03-01T08:11:35.010Z,15
2017-03-01T08:12:34.986Z,20
2017-03-01T08:13:34.942Z,15
2017-03-01T08:14:34.929Z,20
2017-03-01T08:15:34.923Z,20
2017-03-01T08:16:34.909Z,20
2017-03-01T08:17:34.869Z,30
2017-03-01T08:18:34.873Z,30
2017-03-01T08:19:34.826Z,35
2017-03-01T08:20:35.234Z,35
2017-03-01T08:21:35.164Z,30
2017-03-01T08:22:34.736Z,30
2017-03-01T08:23:34.751Z,25
2017-03-01T08:24:34.807Z,30
2017-03-01T08:25:35.082Z,25
2017-03-01T08:26:35.063Z,25
2017-03-01T08:27:34.646Z,35
2017-03-01T08:28:33.811Z,45
2017-03-01T08:29:34.958Z,50
2017-03-01T08:30:34.161Z,60
2017-03-01T08:31:34.929Z,60
2017-03-01T08:32:34.895Z,55
2017-03-01T08:33:34.127Z,50
2017-03-01T08:34:34.066Z,55
2017-03-01T08:35:34.825Z,60
2017-03-01T08:36:34.400Z,50
2017-03-01T08:37:34.010Z,40
2017-03-01T08:38:34.401Z,30
2017-03-01T08:39:34.742Z,30
2017-03-01T08:40:34.328Z,30
2017-03-01T08:41:34.745Z,30
2017-03-01T08:42:34.681Z,40
2017-03-01T08:43:34.631Z,40
2017-03-01T08:44:33.834Z,40
2017-03-01T08:45:34.211Z,50
2017-03-01T08:46:34.185Z,50
2017-03-01T08:47:34.603Z,50
2017-03-01T08:48:33.818Z,45
2017-03-01T08:49:34.489Z,35
2017-03-01T08:50:34.069Z,35
2017-03-01T08:51:34.458Z,30
2017-03-01T08:52:34.429Z,35
2017-03-01T08:53:33.702Z,30
2017-03-01T08:54:33.988Z,25
2017-03-01T08:55:33.975Z,25
2017-03-01T08:56:33.558Z,20
2017-03-01T08:57:33.927Z,20
2017-03-01T08:58:34.285Z,15
2017-03-01T08:59:33.884Z,15
2017-03-01T09:00:33.116Z,15
2017-03-01T09:01:33.509Z,15
2017-03-01T09:02:33.817Z,15
2017-03-01T09:03:34.203Z,20
2017-03-01T09:04:33.401Z,20
2017-03-01T09:05:34.151Z,20
2017-03-01T09:06:33.712Z,20
2017-03-01T09:07:33.677Z,20
2017-03-01T09:08:34.174Z,15
2017-03-01T09:09:33.326Z,15
2017-03-01T09:10:34.014Z,20
2017-03-01T09:11:33.606Z,20
2017-03-01T09:12:32.815Z,20
2017-03-01T09:13:32.376Z,20
2017-03-01T09:14:33.155Z,20
2017-03-01T09:15:33.133Z,15
2017-03-01T09:16:33.533Z,20
2017-03-01T09:17:33.863Z,20
2017-03-01T09:18:33.822Z,20
2017-03-01T09:19:32.754Z,20
2017-03-01T09:20:33.393Z,20
2017-03-01T09:21:33.413Z,20
2017-03-01T09:22:33.417Z,25
2017-03-01T09:23:33.427Z,30
2017-03-01T09:24:33.357Z,30
2017-03-01T09:25:33.775Z,40
2017-03-01T09:26:33.661Z,55
2017-03-01T09:27:32.848Z,75
2017-03-01T09:28:33.334Z,90
2017-03-01T09:29:32.396Z,95
2017-03-01T09:30:33.591Z,90
2017-03-01T09:31:33.525Z,70
2017-03-01T09:32:32.736Z,50
2017-03-01T09:33:33.505Z,40
2017-03-01T09:34:32.286Z,35
2017-03-01T09:35:33.143Z,35
2017-03-01T09:36:32.630Z,35
2017-03-01T09:37:33.369Z,35
2017-03-01T09:38:33.440Z,40
2017-03-01T09:39:33.070Z,40
2017-03-01T09:40:32.545Z,40
2017-03-01T09:41:32.509Z,45
2017-03-01T09:42:32.544Z,45
2017-03-01T09:43:32.917Z,45
2017-03-01T09:44:33.248Z,50
2017-03-01T09:45:32.034Z,55
2017-03-01T09:46:32.381Z,50
2017-03-01T09:47:32.441Z,50
2017-03-01T09:48:32.351Z,55
2017-03-01T09:49:33.110Z,55
2017-03-01T09:50:32.696Z,65
2017-03-01T09:51:32.361Z,140
2017-03-01T09:52:32.657Z,300
2017-03-01T09:53:32.274Z,960
2017-03-01T09:54:32.630Z,970
2017-03-01T09:55:31.857Z,1305
2017-03-01T09:56:32.555Z,1070
2017-03-01T09:57:32.155Z,370
2017-03-01T09:58:31.910Z,1220
2017-03-01T09:59:33.276Z,1225
2017-03-01T10:00:32.881Z,875
2017-03-01T10:01:32.607Z,680
2017-03-01T10:02:32.456Z,510
2017-03-01T10:03:31.670Z,435
2017-03-01T10:04:32.498Z,355
2017-03-01T10:05:32.511Z,1200
2017-03-01T10:06:32.485Z,430
2017-03-01T10:07:32.502Z,935
2017-03-01T10:08:32.895Z,365
2017-03-01T10:09:31.570Z,375
2017-03-01T10:10:32.307Z,200
2017-03-01T10:11:32.742Z,190
2017-03-01T10:12:32.435Z,150
2017-03-01T10:13:32.641Z,180
2017-03-01T10:14:32.254Z,200
2017-03-01T10:15:32.725Z,175
2017-03-01T10:16:32.214Z,180
2017-03-01T10:17:32.244Z,185
2017-03-01T10:18:32.142Z,135
2017-03-01T10:19:32.603Z,135
2017-03-01T10:20:32.132Z,235
2017-03-01T10:21:31.710Z,175
2017-03-01T10:22:31.291Z,175
2017-03-01T10:23:32.062Z,150
2017-03-01T10:24:32.067Z,125
2017-03-01T10:25:31.646Z,105
2017-03-01T10:26:32.017Z,125
2017-03-01T10:27:32.377Z,140
2017-03-01T10:28:31.559Z,100
2017-03-01T10:29:31.539Z,90
2017-03-01T10:30:31.599Z,85
2017-03-01T10:31:32.317Z,85
2017-03-01T10:32:32.545Z,90
2017-03-01T10:33:32.264Z,95
2017-03-01T10:34:31.164Z,95
2017-03-01T10:35:31.827Z,95
2017-03-01T10:36:31.423Z,95
2017-03-01T10:37:32.164Z,90
2017-03-01T10:38:31.442Z,80
2017-03-01T10:39:31.092Z,55
2017-03-01T10:40:31.827Z,45
2017-03-01T10:41:31.683Z,35
2017-03-01T10:42:31.763Z,35
2017-03-01T10:43:31.660Z,40
2017-03-01T10:44:32.042Z,35
2017-03-01T10:45:31.210Z,40
2017-03-01T10:46:31.697Z,45
2017-03-01T10:47:31.567Z,35
2017-03-01T10:48:31.946Z,25
2017-03-01T10:49:31.148Z,20
2017-03-01T10:50:31.500Z,25
2017-03-01T10:51:31.497Z,30
2017-03-01T10:52:30.694Z,35
2017-03-01T10:53:31.454Z,35
2017-03-01T10:54:31.402Z,35
2017-03-01T10:55:31.402Z,45
2017-03-01T10:56:31.392Z,45
2017-03-01T10:57:30.972Z,50
2017-03-01T10:58:30.990Z,50
2017-03-01T10:59:31.704Z,65
2017-03-01T11:00:30.539Z,60
2017-03-01T11:01:30.840Z,60
2017-03-01T11:02:31.225Z,45
2017-03-01T11:03:30.869Z,35
2017-03-01T11:04:31.600Z,30
2017-03-01T11:05:31.283Z,25
2017-03-01T11:06:30.867Z,20
2017-03-01T11:07:31.141Z,20
2017-03-01T11:08:30.709Z,25
2017-03-01T11:09:31.075Z,30
2017-03-01T11:10:31.113Z,35
2017-03-01T11:11:30.266Z,35
2017-03-01T11:12:30.743Z,30
2017-03-01T11:13:30.236Z,30
2017-03-01T11:14:30.578Z,35
2017-03-01T11:15:31.068Z,35
2017-03-01T11:16:30.923Z,40
2017-03-01T11:17:30.915Z,45
2017-03-01T11:18:30.513Z,40
2017-03-01T11:19:30.869Z,35
2017-03-01T11:20:30.858Z,30
2017-03-01T11:21:30.872Z,30
2017-03-01T11:22:30.811Z,40
2017-03-01T11:23:31.324Z,45
2017-03-01T11:24:31.513Z,45
2017-03-01T11:25:30.715Z,45
2017-03-01T11:26:29.906Z,45
2017-03-01T11:27:30.667Z,45
2017-03-01T11:28:30.644Z,45
2017-03-01T11:29:30.265Z,45
2017-03-01T11:30:30.614Z,35
2017-03-01T11:31:30.332Z,35
2017-03-01T11:32:30.184Z,35
2017-03-01T11:33:30.544Z,30
2017-03-01T11:34:30.163Z,30
2017-03-01T11:35:30.113Z,35
2017-03-01T11:36:30.900Z,40
2017-03-01T11:37:30.479Z,45
2017-03-01T11:38:30.090Z,45
2017-03-01T11:39:30.081Z,50
2017-03-01T11:40:30.020Z,55
2017-03-01T11:41:29.581Z,55
2017-03-01T11:42:30.427Z,60
2017-03-01T11:43:29.565Z,70
2017-03-01T11:44:30.375Z,90
2017-03-01T11:45:30.667Z,110
2017-03-01T11:46:29.884Z,130
2017-03-01T11:47:30.234Z,120
2017-03-01T11:48:29.818Z,110
2017-03-01T11:49:30.248Z,100
2017-03-01T11:50:30.233Z,100
2017-03-01T11:51:30.552Z,95
2017-03-01T11:52:30.142Z,105
2017-03-01T11:53:30.487Z,105
2017-03-01T11:54:29.339Z,105
2017-03-01T11:55:30.050Z,100
2017-03-01T11:56:30.438Z,100
2017-03-01T11:57:30.011Z,100
2017-03-01T11:58:29.978Z,100
2017-03-01T11:59:30.433Z,100
2017-03-01T12:00:29.560Z,95
2017-03-01T12:01:29.595Z,95
2017-03-01T12:02:29.129Z,105
2017-03-01T12:03:29.984Z,100
2017-03-01T12:04:29.852Z,100
2017-03-01T12:05:30.233Z,100
2017-03-01T12:06:29.856Z,105
2017-03-01T12:07:29.765Z,105
2017-03-01T12:08:29.362Z,95
2017-03-01T12:09:29.764Z,100
2017-03-01T12:10:28.987Z,105
2017-03-01T12:11:29.814Z,110
2017-03-01T12:12:29.731Z,115
2017-03-01T12:13:29.671Z,110
2017-03-01T12:14:29.619Z,105
2017-03-01T12:15:28.440Z,100
2017-03-01T12:16:29.641Z,95
2017-03-01T12:17:29.587Z,100
2017-03-01T12:18:29.612Z,105
2017-03-01T12:19:29.254Z,115
2017-03-01T12:20:29.515Z,125
2017-03-01T12:21:29.579Z,160
2017-03-01T12:22:29.873Z,165
2017-03-01T12:23:29.913Z,170
2017-03-01T12:24:29.484Z,165
2017-03-01T12:25:29.406Z,165
2017-03-01T12:26:29.367Z,160
2017-03-01T12:27:28.972Z,170
2017-03-01T12:28:28.935Z,250
2017-03-01T12:29:29.682Z,380
2017-03-01T12:30:28.909Z,285
2017-03-01T12:31:29.018Z,315
2017-03-01T12:32:29.626Z,365
2017-03-01T12:33:29.658Z,390
2017-03-01T12:34:28.833Z,390
2017-03-01T12:35:29.179Z,380
2017-03-01T12:36:29.618Z,370
2017-03-01T12:37:29.167Z,190
2017-03-01T12:38:29.538Z,150
2017-03-01T12:39:28.770Z,140
2017-03-01T12:40:29.074Z,125
2017-03-01T12:41:29.093Z,120
2017-03-01T12:42:29.538Z,120
2017-03-01T12:43:28.700Z,125
2017-03-01T12:44:28.665Z,120
2017-03-01T12:45:29.503Z,140
2017-03-01T12:46:28.182Z,220
2017-03-01T12:47:28.970Z,235
2017-03-01T12:48:28.914Z,365
2017-03-01T12:49:28.536Z,295
2017-03-01T12:50:28.131Z,270
2017-03-01T12:51:28.529Z,360
2017-03-01T12:52:28.093Z,205
2017-03-01T12:53:28.829Z,210
2017-03-01T12:54:28.906Z,260
2017-03-01T12:55:29.238Z,255
2017-03-01T12:56:28.778Z,225
2017-03-01T12:57:28.358Z,185
2017-03-01T12:58:29.135Z,155
2017-03-01T12:59:28.879Z,140
2017-03-01T13:00:29.185Z,125
2017-03-01T13:01:29.079Z,95
2017-03-01T13:02:27.893Z,80
2017-03-01T13:03:28.616Z,75
2017-03-01T13:04:27.859Z,80
2017-03-01T13:05:27.844Z,80
2017-03-01T13:06:28.577Z,80
2017-03-01T13:07:28.180Z,85
2017-03-01T13:08:28.987Z,85
2017-03-01T13:09:28.941Z,85
2017-03-01T13:10:28.521Z,80
2017-03-01T13:11:28.594Z,80
2017-03-01T13:12:28.078Z,75
2017-03-01T13:13:28.451Z,80
2017-03-01T13:14:28.835Z,80
2017-03-01T13:15:28.773Z,85
2017-03-01T13:16:28.374Z,85
2017-03-01T13:17:28.377Z,85
2017-03-01T13:18:28.340Z,85
2017-03-01T13:19:28.784Z,75
2017-03-01T13:20:27.995Z,70
2017-03-01T13:21:27.880Z,70
2017-03-01T13:22:28.262Z,75
2017-03-01T13:23:28.229Z,85
2017-03-01T13:24:28.614Z,100
2017-03-01T13:25:28.207Z,115
2017-03-01T13:26:27.763Z,165
2017-03-01T13:27:27.745Z,295
2017-03-01T13:28:27.752Z,310
2017-03-01T13:29:28.134Z,270
2017-03-01T13:30:28.502Z,245
2017-03-01T13:31:28.457Z,185
2017-03-01T13:32:28.066Z,185
2017-03-01T13:33:28.026Z,230
2017-03-01T13:34:28.067Z,170
2017-03-01T13:35:26.877Z,185
2017-03-01T13:36:28.368Z,220
2017-03-01T13:37:27.592Z,180
2017-03-01T13:38:27.544Z,200
2017-03-01T13:39:27.909Z,295
2017-03-01T13:40:28.299Z,285
2017-03-01T13:41:28.264Z,280
2017-03-01T13:42:27.461Z,280
2017-03-01T13:43:27.433Z,275
2017-03-01T13:44:27.418Z,270
2017-03-01T13:45:28.174Z,270
2017-03-01T13:46:27.888Z,265
2017-03-01T13:47:27.437Z,265
2017-03-01T13:48:27.003Z,265
2017-03-01T13:49:27.737Z,270
2017-03-01T13:50:27.706Z,255
2017-03-01T13:51:27.792Z,250
2017-03-01T13:52:28.062Z,255
2017-03-01T13:53:28.020Z,260
2017-03-01T13:54:27.684Z,155
2017-03-01T13:55:27.333Z,180
2017-03-01T13:56:27.958Z,225
2017-03-01T13:57:27.604Z,185
2017-03-01T13:58:27.935Z,165
2017-03-01T13:59:27.134Z,160
2017-03-01T14:00:27.122Z,230
2017-03-01T14:01:27.479Z,165
2017-03-01T14:02:27.488Z,150
2017-03-01T14:03:27.543Z,145
2017-03-01T14:04:27.797Z,145
2017-03-01T14:05:26.622Z,150
2017-03-01T14:06:27.388Z,180
2017-03-01T14:07:27.015Z,155
2017-03-01T14:08:27.849Z,150
2017-03-01T14:09:27.738Z,175
2017-03-01T14:10:26.919Z,265
2017-03-01T14:11:27.397Z,145
2017-03-01T14:12:27.667Z,135
2017-03-01T14:13:27.647Z,125
2017-03-01T14:14:27.234Z,230
2017-03-01T14:15:27.269Z,225
2017-03-01T14:16:27.300Z,130
2017-03-01T14:17:27.585Z,125
2017-03-01T14:18:27.541Z,125
2017-03-01T14:19:27.233Z,125
2017-03-01T14:20:27.502Z,135
2017-03-01T14:21:27.138Z,225
2017-03-01T14:22:27.089Z,180
2017-03-01T14:23:26.683Z,115
2017-03-01T14:24:27.453Z,110